DAUL

Laghouat Airport

Laghouat, Algeria
METAR DAUL 201500Z 36016KT 9999 FEW026 16/M04 Q1012
Observed Flight Rules
Feb-20 @ 15:00 UTC (22 hours ago) Visual Flight Rules
Wind Visibility Clouds
360° at 16 knots 10,000+ meters
  • Few at 2,600' AGL
Temperatures Readings
Current 16°C / 61°F
Dewpoint -4°C / 25°F
Humidity 25%
Altimeter 29.88" Hg
Pressure 1012 hPa
Elevation 765
METAR DAUL 201500Z 36016KT 9999 FEW026 16/M04 Q1012
Observed Flight Rules
Feb-20 @ 15:00 UTC
(22 hours ago)
VFR
Wind Visibility
360° at 16 knots 10,000+ meters
Clouds
  • Few at 2,600' AGL
Temperature Dewpoint
16°C / 61°F -4°C / 25°F
Humidity Altimeter Pressure
25% 29.88" Hg 1012 hPa